createdAt,value
2018-09-26T00:00:36.748Z,38.9
2018-09-26T00:05:32.397Z,39.2
2018-09-26T00:10:27.801Z,39.5
2018-09-26T00:15:23.684Z,39.6
2018-09-26T00:20:19.402Z,39.8
2018-09-26T00:25:15.539Z,39.8
2018-09-26T00:30:11.510Z,40.1
2018-09-26T00:35:07.358Z,40.3
2018-09-26T00:40:03.065Z,40.4
2018-09-26T00:44:58.840Z,40.2
2018-09-26T00:49:55.389Z,40.6
2018-09-26T00:54:51.504Z,40.4
2018-09-26T00:59:48.000Z,40.4
2018-09-26T01:04:43.630Z,40.7
2018-09-26T01:09:39.959Z,41.1
2018-09-26T01:14:35.595Z,41.3
2018-09-26T01:19:30.914Z,41.7
2018-09-26T01:24:26.810Z,42.1
2018-09-26T01:29:23.513Z,42.3
2018-09-26T01:34:19.194Z,42.5
2018-09-26T01:39:14.820Z,42.8
2018-09-26T01:44:10.634Z,42.8
2018-09-26T01:49:06.428Z,42.7
2018-09-26T01:54:02.133Z,42.6
2018-09-26T01:58:58.674Z,43.2
2018-09-26T02:03:54.496Z,43.1
2018-09-26T02:08:50.732Z,43.2
2018-09-26T02:13:46.796Z,43.3
2018-09-26T02:18:42.301Z,43.4
2018-09-26T02:23:38.681Z,43.9
2018-09-26T02:28:34.694Z,44
2018-09-26T02:33:30.417Z,43.7
2018-09-26T02:38:25.807Z,43.8
2018-09-26T02:43:21.790Z,43.8
2018-09-26T02:48:16.079Z,44
2018-09-26T02:53:11.917Z,44.5
2018-09-26T02:58:08.435Z,44.6
2018-09-26T03:03:04.294Z,44.6
2018-09-26T03:08:00.402Z,44.3
2018-09-26T03:12:56.080Z,44.2
2018-09-26T03:17:51.796Z,44.4
2018-09-26T03:22:47.470Z,44.8
2018-09-26T03:27:43.472Z,45.3
2018-09-26T03:32:39.110Z,45.3
2018-09-26T03:37:35.019Z,45.1
2018-09-26T03:42:30.996Z,44.9
2018-09-26T03:47:26.553Z,44.9
2018-09-26T03:52:22.131Z,45.2
2018-09-26T03:57:17.961Z,45.3
2018-09-26T04:02:13.764Z,45.1
2018-09-26T04:07:09.628Z,45.1
2018-09-26T04:12:05.359Z,45
2018-09-26T04:17:01.042Z,44.8
2018-09-26T04:21:56.750Z,45.1
2018-09-26T04:26:52.594Z,44.9
2018-09-26T04:31:48.053Z,45.1
2018-09-26T04:36:43.941Z,45.6
2018-09-26T04:41:39.672Z,45.9
2018-09-26T04:46:35.525Z,45.7
2018-09-26T04:51:31.239Z,45.2
2018-09-26T04:56:27.365Z,45.2
2018-09-26T05:01:23.101Z,45.3
2018-09-26T05:06:18.952Z,45.5
2018-09-26T05:11:14.436Z,45.3
2018-09-26T05:16:10.171Z,45.4
2018-09-26T05:21:05.886Z,45.1
2018-09-26T05:26:01.938Z,45.1
2018-09-26T05:30:57.278Z,45.3
2018-09-26T05:35:53.171Z,45.4
2018-09-26T05:40:48.972Z,45.7
2018-09-26T05:45:44.852Z,45.8
2018-09-26T05:50:40.610Z,46
2018-09-26T05:55:36.600Z,46
2018-09-26T06:00:32.760Z,46
2018-09-26T06:05:28.903Z,45.8
2018-09-26T06:10:24.774Z,46.1
2018-09-26T06:15:20.153Z,46.2
2018-09-26T06:20:15.961Z,46.2
2018-09-26T06:25:11.694Z,45.9
2018-09-26T06:30:07.572Z,45.9
2018-09-26T06:35:02.917Z,46
2018-09-26T06:39:58.528Z,46
2018-09-26T06:44:54.317Z,46
2018-09-26T06:49:50.270Z,45.8
2018-09-26T06:54:46.513Z,45.8
2018-09-26T06:59:42.577Z,45.6
2018-09-26T07:04:38.890Z,45.3
2018-09-26T07:09:34.231Z,45
2018-09-26T07:14:30.149Z,44.7
2018-09-26T07:19:26.187Z,44.9
2018-09-26T07:24:22.016Z,44.4
2018-09-26T07:29:17.933Z,44.3
2018-09-26T07:34:13.970Z,43.9
2018-09-26T07:39:09.804Z,43.9
2018-09-26T07:44:05.264Z,43.6
2018-09-26T07:49:00.961Z,43
2018-09-26T07:53:57.171Z,42.2
2018-09-26T07:58:53.280Z,42.2
2018-09-26T08:03:48.803Z,42.1
2018-09-26T08:08:44.776Z,42.1
2018-09-26T08:13:40.753Z,42.1
2018-09-26T08:18:36.805Z,41.8
2018-09-26T08:23:33.004Z,41
2018-09-26T08:28:28.780Z,40.2
2018-09-26T08:33:24.870Z,40.3
2018-09-26T08:38:20.505Z,39.9
2018-09-26T08:43:16.351Z,39.8
2018-09-26T08:48:12.068Z,39.2
2018-09-26T08:53:08.491Z,38.5
2018-09-26T08:58:04.481Z,39
2018-09-26T09:03:00.841Z,38.5
2018-09-26T09:07:56.626Z,37.8
2018-09-26T09:12:51.349Z,37.7
2018-09-26T09:17:47.271Z,36.6
2018-09-26T09:22:42.768Z,35.6
2018-09-26T09:27:38.717Z,35.2
2018-09-26T09:32:34.299Z,34.5
2018-09-26T09:37:30.400Z,34.6
2018-09-26T09:42:26.423Z,34.8
2018-09-26T09:47:22.484Z,33.9
2018-09-26T09:52:18.538Z,34.3
2018-09-26T09:57:14.880Z,34.2
2018-09-26T10:02:12.237Z,33.3
2018-09-26T10:07:08.076Z,32.5
2018-09-26T10:12:04.153Z,31.9
2018-09-26T10:17:00.295Z,31.4
2018-09-26T10:21:56.377Z,31.7
2018-09-26T10:26:52.484Z,31.6
2018-09-26T10:31:48.705Z,30.8
2018-09-26T10:36:44.651Z,31.5
2018-09-26T10:41:40.660Z,31
2018-09-26T10:46:36.930Z,31.2
2018-09-26T10:51:33.412Z,30.8
2018-09-26T10:56:29.085Z,31.5
2018-09-26T11:01:25.396Z,30.3
2018-09-26T11:06:21.054Z,30.5
2018-09-26T11:11:16.820Z,30.4
2018-09-26T11:16:12.712Z,30.8
2018-09-26T11:21:08.577Z,30.6
2018-09-26T11:26:05.853Z,30.5
2018-09-26T11:31:02.145Z,29.5
2018-09-26T11:35:58.429Z,29.4
2018-09-26T11:40:54.958Z,29.9
2018-09-26T11:45:51.059Z,29.4
2018-09-26T11:50:47.096Z,27.8
2018-09-26T11:55:43.053Z,27.5
2018-09-26T12:00:39.299Z,27.8
2018-09-26T12:05:35.532Z,28.2
2018-09-26T12:10:31.303Z,27.5
2018-09-26T12:15:27.504Z,27.2
2018-09-26T12:20:22.965Z,27.9
2018-09-26T12:25:19.125Z,27.9
2018-09-26T12:30:14.822Z,28
2018-09-26T12:35:08.820Z,28.5
2018-09-26T12:40:05.077Z,28.7
2018-09-26T12:45:00.362Z,28.7
2018-09-26T12:49:56.600Z,29
2018-09-26T12:54:52.094Z,28.7
2018-09-26T12:59:48.253Z,29.1
2018-09-26T13:04:44.048Z,29.5
2018-09-26T13:09:40.089Z,29.2
2018-09-26T13:14:36.516Z,28.8
2018-09-26T13:19:32.806Z,28.8
2018-09-26T13:24:28.679Z,28.6
2018-09-26T13:29:25.145Z,28.7
2018-09-26T13:34:21.198Z,29.6
2018-09-26T13:39:17.247Z,28.4
2018-09-26T13:44:12.644Z,28.6
2018-09-26T13:49:08.921Z,28.3
2018-09-26T13:54:04.672Z,28.7
2018-09-26T13:59:00.255Z,28.9
2018-09-26T14:03:56.447Z,29.3
2018-09-26T14:08:52.308Z,30
2018-09-26T14:13:48.244Z,29.9
2018-09-26T14:18:43.985Z,29.9
2018-09-26T14:23:40.235Z,29.7
2018-09-26T14:28:34.908Z,30
2018-09-26T14:33:30.598Z,30
2018-09-26T14:38:26.181Z,30
2018-09-26T14:43:21.983Z,29.6
2018-09-26T14:48:18.197Z,29.3
2018-09-26T14:53:14.536Z,29.2
2018-09-26T14:58:10.733Z,29.4
2018-09-26T15:03:06.581Z,29.5
2018-09-26T15:08:02.680Z,29.6
2018-09-26T15:12:58.426Z,29.5
2018-09-26T15:17:53.993Z,29.5
2018-09-26T15:22:49.818Z,30.2
2018-09-26T15:27:46.009Z,30.3
2018-09-26T15:32:41.562Z,30.3
2018-09-26T15:37:37.669Z,30.4
2018-09-26T15:42:33.349Z,30.6
2018-09-26T15:47:29.123Z,31
2018-09-26T15:52:24.843Z,31
2018-09-26T15:57:20.356Z,31.3
2018-09-26T16:02:16.122Z,31.7
2018-09-26T16:07:12.429Z,31.6
2018-09-26T16:12:08.158Z,31.9
2018-09-26T16:17:04.022Z,32
2018-09-26T16:21:59.886Z,32.1
2018-09-26T16:26:55.584Z,32.2
2018-09-26T16:31:51.869Z,32.6
2018-09-26T16:36:49.052Z,32.5
2018-09-26T16:41:44.447Z,32.5
2018-09-26T16:46:40.272Z,32.3
2018-09-26T16:51:36.433Z,32.2
2018-09-26T16:56:32.796Z,32.5
2018-09-26T17:01:28.248Z,32.6
2018-09-26T17:06:24.698Z,32.8
2018-09-26T17:11:20.530Z,32.9
2018-09-26T17:16:16.648Z,33.1
2018-09-26T17:21:12.478Z,33.2
2018-09-26T17:26:08.333Z,33.3
2018-09-26T17:31:03.955Z,33.5
2018-09-26T17:35:59.824Z,33.6
2018-09-26T17:40:55.520Z,33.7
2018-09-26T17:45:51.682Z,34.1
2018-09-26T17:50:47.483Z,34.1
2018-09-26T17:55:43.817Z,34.2
2018-09-26T18:00:39.516Z,34.6
2018-09-26T18:05:35.477Z,34.8
2018-09-26T18:10:31.502Z,34.8
2018-09-26T18:15:27.526Z,35
2018-09-26T18:20:23.413Z,35.4
2018-09-26T18:25:19.315Z,35.4
2018-09-26T18:30:15.102Z,35.6
2018-09-26T18:35:10.854Z,35.8
2018-09-26T18:40:06.781Z,36
2018-09-26T18:45:02.682Z,36
2018-09-26T18:49:58.665Z,36.1
2018-09-26T18:54:54.690Z,36.1
2018-09-26T18:59:50.644Z,36.3
2018-09-26T19:04:46.814Z,36.2
2018-09-26T19:09:42.627Z,36.4
2018-09-26T19:14:38.631Z,36.6
2018-09-26T19:19:40.003Z,36.8
2018-09-26T19:24:36.084Z,36.8
2018-09-26T19:29:31.737Z,37.1
2018-09-26T19:34:27.612Z,37.1
2018-09-26T19:39:23.754Z,37.2
2018-09-26T19:44:19.446Z,37.3
2018-09-26T19:49:15.338Z,37.3
2018-09-26T19:54:11.519Z,37.7
2018-09-26T19:59:07.488Z,37.8
2018-09-26T20:04:03.688Z,37.9
2018-09-26T20:08:59.559Z,38.2
2018-09-26T20:13:55.303Z,38.3
2018-09-26T20:18:51.011Z,38.1
2018-09-26T20:23:47.109Z,38.5
2018-09-26T20:28:42.986Z,38.3
2018-09-26T20:33:38.779Z,38.3
2018-09-26T20:38:34.643Z,38.4
2018-09-26T20:43:30.513Z,38.6
2018-09-26T20:48:26.101Z,39
2018-09-26T20:53:22.130Z,38.9
2018-09-26T20:58:18.200Z,38.9
2018-09-26T21:03:14.227Z,39.3
2018-09-26T21:08:09.823Z,39.6
2018-09-26T21:13:06.051Z,39.5
2018-09-26T21:18:01.237Z,39.5
2018-09-26T21:22:57.224Z,39.5
2018-09-26T21:27:53.166Z,39.6
2018-09-26T21:32:49.079Z,39.8
2018-09-26T21:37:44.866Z,40.2
2018-09-26T21:42:40.527Z,40.4
2018-09-26T21:47:36.419Z,40.5
2018-09-26T21:52:32.717Z,40.5
2018-09-26T21:57:28.726Z,40.7
2018-09-26T22:02:24.907Z,41.2
2018-09-26T22:07:20.647Z,41.8
2018-09-26T22:12:16.563Z,41.7
2018-09-26T22:17:12.417Z,42
2018-09-26T22:22:08.354Z,42.2
2018-09-26T22:27:04.164Z,42.3
2018-09-26T22:32:00.323Z,42
2018-09-26T22:36:56.160Z,42
2018-09-26T22:41:52.056Z,41.8
2018-09-26T22:46:48.125Z,42
2018-09-26T22:51:44.126Z,41.9
2018-09-26T22:56:39.927Z,42.1
2018-09-26T23:01:36.171Z,42.1
2018-09-26T23:06:31.432Z,42
2018-09-26T23:11:27.105Z,41.8
2018-09-26T23:16:22.917Z,41.8
2018-09-26T23:21:18.636Z,42.1
2018-09-26T23:26:14.776Z,42.9
2018-09-26T23:31:10.660Z,43.2
2018-09-26T23:36:06.586Z,43.5
2018-09-26T23:41:02.378Z,43.2
2018-09-26T23:45:58.237Z,43
2018-09-26T23:50:54.081Z,43.5
2018-09-26T23:55:50.340Z,43.3
